createdAt,value
2023-02-11T00:03:58.572Z,4.13
2023-02-11T00:09:01.673Z,4.50
2023-02-11T00:14:09.235Z,4.20
2023-02-11T00:19:11.976Z,3.50
2023-02-11T00:24:14.764Z,5.00
2023-02-11T00:29:18.851Z,4.43
2023-02-11T00:34:25.366Z,4.63
2023-02-11T00:39:28.430Z,5.27
2023-02-11T00:44:33.358Z,4.20
2023-02-11T00:49:36.950Z,4.23
2023-02-11T00:54:39.799Z,5.13
2023-02-11T00:59:44.429Z,4.63
2023-02-11T01:04:47.221Z,5.13
2023-02-11T01:09:50.112Z,5.03
2023-02-11T01:14:54.254Z,5.93
2023-02-11T01:19:57.096Z,5.00
2023-02-11T01:24:59.886Z,7.03
2023-02-11T01:30:06.470Z,6.23
2023-02-11T01:35:09.477Z,5.10
2023-02-11T01:40:14.748Z,7.67
2023-02-11T01:45:53.997Z,5.83
2023-02-11T01:51:02.200Z,5.67
2023-02-11T01:56:23.892Z,6.87
2023-02-11T02:01:28.000Z,7.27
2023-02-11T02:06:36.076Z,5.57
2023-02-11T02:11:38.988Z,5.93
2023-02-11T02:16:41.863Z,6.43
2023-02-11T02:22:24.282Z,6.43
2023-02-11T02:27:43.033Z,7.30
2023-02-11T02:33:22.484Z,6.60
2023-02-11T02:38:28.964Z,6.97
2023-02-11T02:43:32.088Z,7.30
2023-02-11T02:48:36.524Z,9.37
2023-02-11T02:53:50.106Z,8.80
2023-02-11T02:59:15.141Z,8.13
2023-02-11T03:04:23.289Z,8.40
2023-02-11T03:09:30.780Z,8.43
2023-02-11T03:14:34.046Z,9.20
2023-02-11T03:19:39.795Z,8.30
2023-02-11T03:24:43.128Z,8.83
2023-02-11T03:29:55.864Z,8.97
2023-02-11T03:35:04.313Z,9.60
2023-02-11T03:40:10.164Z,9.13
2023-02-11T03:45:16.862Z,10.87
2023-02-11T03:50:22.555Z,8.50
2023-02-11T03:55:27.089Z,10.10
2023-02-11T04:00:31.504Z,8.67
2023-02-11T04:05:35.908Z,7.90
2023-02-11T04:10:38.696Z,8.80
2023-02-11T04:15:41.508Z,8.63
2023-02-11T04:20:45.635Z,8.40
2023-02-11T04:25:48.985Z,9.07
2023-02-11T04:30:52.374Z,9.37
2023-02-11T04:35:56.585Z,11.70
2023-02-11T04:41:00.560Z,9.47
2023-02-11T04:46:03.408Z,9.70
2023-02-11T04:51:07.726Z,9.23
2023-02-11T04:56:10.616Z,11.67
2023-02-11T05:01:16.233Z,10.73
2023-02-11T05:06:20.529Z,11.77
2023-02-11T05:11:25.396Z,11.47
2023-02-11T05:16:28.357Z,11.67
2023-02-11T05:21:34.214Z,10.63
2023-02-11T05:26:36.942Z,9.73
2023-02-11T05:31:39.728Z,11.10
2023-02-11T05:36:45.084Z,11.63
2023-02-11T05:41:47.863Z,11.37
2023-02-11T05:46:50.658Z,11.80
2023-02-11T05:51:54.793Z,8.73
2023-02-11T05:56:57.529Z,12.37
2023-02-11T06:02:00.240Z,12.67
2023-02-11T06:07:04.725Z,13.87
2023-02-11T06:12:07.882Z,11.20
2023-02-11T06:17:10.693Z,13.73
2023-02-11T06:22:17.217Z,11.30
2023-02-11T06:27:20.803Z,11.83
2023-02-11T06:32:43.981Z,11.40
2023-02-11T06:37:54.027Z,12.53
2023-02-11T06:42:56.941Z,11.13
2023-02-11T06:48:00.103Z,11.33
2023-02-11T06:53:04.300Z,11.70
2023-02-11T06:58:07.140Z,11.23
2023-02-11T07:03:10.017Z,11.73
2023-02-11T07:08:14.180Z,10.93
2023-02-11T07:13:17.106Z,11.10
2023-02-11T07:18:19.954Z,11.67
2023-02-11T07:23:24.122Z,12.90
2023-02-11T07:28:27.017Z,11.17
2023-02-11T07:33:29.924Z,12.37
2023-02-11T07:38:34.964Z,11.93
2023-02-11T07:43:38.687Z,10.93
2023-02-11T07:48:41.505Z,10.30
2023-02-11T07:53:47.885Z,11.07
2023-02-11T07:58:51.318Z,9.90
2023-02-11T08:03:54.899Z,10.13
2023-02-11T08:08:59.278Z,10.90
2023-02-11T08:14:02.119Z,9.53
2023-02-11T08:19:07.063Z,11.23
2023-02-11T08:24:11.485Z,11.30
2023-02-11T08:29:16.114Z,10.03
2023-02-11T08:34:19.484Z,9.57
2023-02-11T08:39:23.971Z,9.73
2023-02-11T08:44:26.866Z,8.60
2023-02-11T08:49:30.624Z,10.00
2023-02-11T08:54:34.828Z,9.77
2023-02-11T08:59:40.054Z,9.20
2023-02-11T09:04:42.858Z,8.63
2023-02-11T09:09:47.072Z,8.40
2023-02-11T09:14:49.911Z,8.70
2023-02-11T09:19:52.832Z,8.53
2023-02-11T09:24:57.142Z,8.93
2023-02-11T09:30:01.427Z,9.73
2023-02-11T09:35:04.405Z,9.90
2023-02-11T09:40:09.830Z,8.03
2023-02-11T09:45:18.810Z,7.43
2023-02-11T09:50:25.266Z,6.80
2023-02-11T09:55:31.681Z,7.07
2023-02-11T10:00:38.914Z,7.10
2023-02-11T10:05:59.668Z,7.13
2023-02-11T10:11:07.090Z,6.13
2023-02-11T10:16:19.100Z,7.80
2023-02-11T10:21:30.110Z,6.37
2023-02-11T10:26:34.419Z,6.67
2023-02-11T10:31:38.929Z,7.30
2023-02-11T10:36:43.300Z,7.83
2023-02-11T10:41:48.974Z,6.40
2023-02-11T10:46:52.198Z,5.90
2023-02-11T10:52:14.038Z,4.80
2023-02-11T10:57:19.895Z,6.30
2023-02-11T11:02:24.818Z,5.03
2023-02-11T11:07:29.432Z,4.33
2023-02-11T11:12:40.311Z,3.80
2023-02-11T11:17:43.902Z,4.70
2023-02-11T11:22:47.261Z,4.70
2023-02-11T11:27:52.195Z,4.03
2023-02-11T11:32:55.125Z,3.77
2023-02-11T11:38:01.775Z,5.13
2023-02-11T11:43:23.135Z,3.77
2023-02-11T11:48:29.316Z,3.60
2023-02-11T11:53:36.982Z,3.87
2023-02-11T11:58:41.230Z,3.47
2023-02-11T12:04:15.352Z,3.20
2023-02-11T12:09:25.744Z,2.90
2023-02-11T12:14:36.724Z,3.63
2023-02-11T12:19:56.309Z,3.57
2023-02-11T12:25:11.045Z,3.87
2023-02-11T12:30:24.656Z,3.83
2023-02-11T12:35:32.572Z,3.37
2023-02-11T12:40:41.418Z,3.30
2023-02-11T12:46:34.902Z,4.27
2023-02-11T12:51:51.113Z,2.90
2023-02-11T12:56:59.238Z,2.97
2023-02-11T13:02:06.880Z,4.33
2023-02-11T13:07:15.699Z,3.63
2023-02-11T13:12:36.093Z,3.53
2023-02-11T13:17:42.067Z,3.10
2023-02-11T13:22:51.825Z,2.97
2023-02-11T13:27:58.722Z,3.03
2023-02-11T13:33:21.219Z,2.27
2023-02-11T13:38:27.596Z,2.57
2023-02-11T13:43:31.791Z,2.80
2023-02-11T13:48:36.162Z,3.40
2023-02-11T13:53:48.839Z,2.93
2023-02-11T13:58:52.616Z,3.13
2023-02-11T14:04:38.438Z,2.77
2023-02-11T14:09:42.729Z,3.23
2023-02-11T14:15:19.760Z,2.63
2023-02-11T14:20:37.610Z,3.60
2023-02-11T14:25:43.500Z,2.77
2023-02-11T14:30:55.515Z,2.77
2023-02-11T14:36:06.725Z,2.73
2023-02-11T14:41:15.223Z,3.07
2023-02-11T14:46:19.344Z,2.73
2023-02-11T14:51:24.493Z,2.47
2023-02-11T14:56:31.475Z,2.57
2023-02-11T15:01:36.115Z,2.27
2023-02-11T15:06:40.852Z,3.47
2023-02-11T15:11:46.638Z,2.40
2023-02-11T15:16:50.749Z,2.27
2023-02-11T15:21:54.669Z,3.30
2023-02-11T15:27:00.705Z,3.90
2023-02-11T15:32:08.843Z,2.57
2023-02-11T15:37:14.586Z,2.80
2023-02-11T15:42:26.959Z,3.07
2023-02-11T15:47:29.980Z,3.13
2023-02-11T15:52:33.060Z,3.37
2023-02-11T15:57:37.333Z,2.87
2023-02-11T16:02:45.172Z,3.50
2023-02-11T16:07:50.404Z,5.20
2023-02-11T16:12:59.350Z,2.93
2023-02-11T16:18:02.700Z,2.40
2023-02-11T16:23:06.094Z,3.30
2023-02-11T16:28:15.162Z,2.90
2023-02-11T16:33:18.143Z,2.60
2023-02-11T16:38:21.106Z,3.03
2023-02-11T16:43:25.425Z,2.93
2023-02-11T16:48:28.343Z,3.10
2023-02-11T16:53:31.508Z,4.00
2023-02-11T16:58:35.703Z,3.80
2023-02-11T17:03:40.502Z,5.80
2023-02-11T17:08:44.387Z,7.20
2023-02-11T17:13:48.671Z,5.17
2023-02-11T17:18:52.013Z,4.90
2023-02-11T17:23:54.806Z,3.47
2023-02-11T17:28:58.980Z,3.50
2023-02-11T17:34:01.850Z,3.70
2023-02-11T17:39:08.230Z,3.37
2023-02-11T17:44:14.104Z,5.87
2023-02-11T17:49:17.026Z,4.70
2023-02-11T17:54:20.617Z,4.80
2023-02-11T17:59:25.953Z,3.97
2023-02-11T18:04:29.142Z,4.97
2023-02-11T18:09:31.983Z,5.87
2023-02-11T18:14:36.341Z,5.60
2023-02-11T18:19:39.289Z,4.77
2023-02-11T18:24:44.745Z,5.13
2023-02-11T18:29:49.438Z,4.67
2023-02-11T18:34:52.559Z,4.67
2023-02-11T18:39:55.507Z,6.40
2023-02-11T18:44:59.736Z,5.83
2023-02-11T18:50:02.586Z,5.03
2023-02-11T18:55:05.836Z,4.70
2023-02-11T19:00:11.791Z,5.37
2023-02-11T19:05:15.632Z,5.63
2023-02-11T19:10:18.785Z,6.60
2023-02-11T19:15:23.118Z,6.47
2023-02-11T19:20:25.968Z,6.40
2023-02-11T19:25:29.175Z,7.07
2023-02-11T19:30:33.486Z,5.77
2023-02-11T19:35:36.520Z,5.93
2023-02-11T19:40:39.307Z,5.33
2023-02-11T19:45:43.449Z,5.23
2023-02-11T19:50:46.288Z,5.23
2023-02-11T19:55:49.778Z,5.73
2023-02-11T20:00:54.195Z,5.83
2023-02-11T20:05:57.130Z,6.43
2023-02-11T20:11:05.942Z,6.50
2023-02-11T20:16:12.309Z,5.90
2023-02-11T20:21:17.642Z,5.97
2023-02-11T20:26:22.976Z,6.03
2023-02-11T20:31:27.376Z,6.13
2023-02-11T20:36:32.336Z,5.13
2023-02-11T20:41:36.702Z,5.30
2023-02-11T20:46:42.295Z,6.57
2023-02-11T20:51:45.168Z,5.03
2023-02-11T20:56:50.660Z,4.40
2023-02-11T21:01:56.935Z,5.33
2023-02-11T21:07:01.480Z,5.07
2023-02-11T21:12:05.389Z,6.20
2023-02-11T21:17:09.558Z,7.73
2023-02-11T21:22:12.402Z,6.57
2023-02-11T21:27:16.115Z,6.13
2023-02-11T21:32:20.353Z,5.00
2023-02-11T21:37:25.281Z,5.33
2023-02-11T21:42:28.093Z,5.90
2023-02-11T21:47:32.794Z,4.97
2023-02-11T21:52:35.611Z,4.80
2023-02-11T21:57:38.523Z,5.53
2023-02-11T22:02:42.999Z,4.97
2023-02-11T22:07:45.918Z,5.63
2023-02-11T22:12:48.744Z,5.97
2023-02-11T22:17:52.936Z,5.13
2023-02-11T22:22:55.708Z,5.57
2023-02-11T22:27:58.514Z,4.00
2023-02-11T22:33:04.089Z,5.13
2023-02-11T22:38:06.914Z,4.73
2023-02-11T22:43:09.790Z,5.47
2023-02-11T22:48:14.027Z,5.17
2023-02-11T22:53:16.864Z,6.07
2023-02-11T22:58:19.842Z,6.73
2023-02-11T23:03:24.015Z,6.10
2023-02-11T23:08:28.069Z,6.90
2023-02-11T23:13:30.804Z,7.03
2023-02-11T23:18:35.440Z,7.07
2023-02-11T23:23:38.212Z,7.17
2023-02-11T23:28:41.333Z,6.93
2023-02-11T23:33:45.963Z,8.20
2023-02-11T23:38:49.523Z,6.40
2023-02-11T23:43:53.180Z,7.20
2023-02-11T23:48:57.574Z,6.70
2023-02-11T23:54:00.443Z,8.40
2023-02-11T23:59:03.282Z,7.57
